DLH205 CYEG-HECA
Flight info
| Callsign | DLH205 |
|---|---|
| Flight time | N/A |
| Altitude | 35000 |
| Route | GABET1 GABET DCT LETRM DCT YEK DCT YXP DCT LILGO DCT 67N030W DCT 66N020W DCT 64N010W DCT VALDI DCT ROVEK DCT KUMBI L612 BLT A16 CVO |
| Aircraft | A388/J-SADE2E3FGHIJ3J4J5M1RWXY/LB1D1 |
Departure
| Time | 2026-04-29 02:37 |
|---|---|
| Airport | Edmonton International Airport (CYEG) |
Arrival
| Time | N/A |
|---|---|
| Airport | Cairo International Airport (HECA) |
| Time | Latitude | Longitude | Altitude | Speed | Heading |
|---|---|---|---|---|---|
| 2026-04-29 02:10 | 53.30297 | -113.57893 | 2341 ft | 0 kts | 0° |
| 2026-04-29 02:21 | 53.30291 | -113.57893 | 2341 ft | 2 kts | 8° |
| 2026-04-29 02:21 | 53.30276 | -113.57897 | 2341 ft | 2 kts | 6° |
| 2026-04-29 02:21 | 53.30261 | -113.57899 | 2341 ft | 2 kts | 359° |
| 2026-04-29 02:22 | 53.30250 | -113.57899 | 2341 ft | 1 kts | 358° |
| 2026-04-29 02:22 | 53.30234 | -113.57897 | 2341 ft | 3 kts | 334° |
| 2026-04-29 02:22 | 53.30220 | -113.57880 | 2341 ft | 2 kts | 303° |
| 2026-04-29 02:22 | 53.30213 | -113.57853 | 2341 ft | 3 kts | 274° |
| 2026-04-29 02:23 | 53.30214 | -113.57824 | 2341 ft | 3 kts | 245° |
| 2026-04-29 02:23 | 53.30220 | -113.57805 | 2341 ft | 1 kts | 225° |
| 2026-04-29 02:23 | 53.30223 | -113.57799 | 2341 ft | 0 kts | 225° |
| 2026-04-29 02:29 | 53.30221 | -113.57801 | 2341 ft | 2 kts | 225° |
| 2026-04-29 02:29 | 53.30198 | -113.57841 | 2341 ft | 7 kts | 226° |
| 2026-04-29 02:29 | 53.30182 | -113.57932 | 2341 ft | 10 kts | 278° |
| 2026-04-29 02:29 | 53.30224 | -113.58043 | 2341 ft | 12 kts | 314° |
| 2026-04-29 02:30 | 53.30256 | -113.58163 | 2341 ft | 11 kts | 265° |
| 2026-04-29 02:30 | 53.30218 | -113.58259 | 2341 ft | 10 kts | 228° |
| 2026-04-29 02:30 | 53.30201 | -113.58354 | 2341 ft | 8 kts | 283° |
| 2026-04-29 02:30 | 53.30230 | -113.58424 | 2341 ft | 7 kts | 315° |
| 2026-04-29 02:31 | 53.30266 | -113.58483 | 2341 ft | 7 kts | 314° |
| 2026-04-29 02:31 | 53.30305 | -113.58548 | 2341 ft | 8 kts | 314° |
| 2026-04-29 02:31 | 53.30348 | -113.58620 | 2341 ft | 9 kts | 315° |
| 2026-04-29 02:31 | 53.30396 | -113.58701 | 2341 ft | 10 kts | 315° |
| 2026-04-29 02:32 | 53.30449 | -113.58788 | 2341 ft | 11 kts | 315° |
| 2026-04-29 02:32 | 53.30506 | -113.58885 | 2341 ft | 12 kts | 314° |
| 2026-04-29 02:32 | 53.30568 | -113.58988 | 2341 ft | 13 kts | 315° |
| 2026-04-29 02:32 | 53.30624 | -113.59082 | 2341 ft | 10 kts | 315° |
| 2026-04-29 02:33 | 53.30667 | -113.59154 | 2341 ft | 8 kts | 315° |
| 2026-04-29 02:33 | 53.30708 | -113.59222 | 2341 ft | 8 kts | 315° |
| 2026-04-29 02:33 | 53.30747 | -113.59286 | 2341 ft | 6 kts | 315° |
| 2026-04-29 02:33 | 53.30759 | -113.59307 | 2341 ft | 0 kts | 315° |
| 2026-04-29 02:35 | 53.30765 | -113.59317 | 2341 ft | 3 kts | 315° |
| 2026-04-29 02:35 | 53.30787 | -113.59353 | 2341 ft | 6 kts | 315° |
| 2026-04-29 02:35 | 53.30825 | -113.59416 | 2341 ft | 9 kts | 315° |
| 2026-04-29 02:35 | 53.30876 | -113.59500 | 2341 ft | 11 kts | 315° |
| 2026-04-29 02:36 | 53.30942 | -113.59546 | 2341 ft | 10 kts | 9° |
| 2026-04-29 02:36 | 53.31040 | -113.59441 | 2341 ft | 37 kts | 35° |
| 2026-04-29 02:36 | 53.31408 | -113.59003 | 2341 ft | 94 kts | 33° |
| 2026-04-29 02:36 | 53.32101 | -113.58196 | 2341 ft | 150 kts | 35° |
| 2026-04-29 02:37 | 53.33077 | -113.57046 | 2583 ft | 184 kts | 35° |
| 2026-04-29 02:37 | 53.34113 | -113.55834 | 3286 ft | 188 kts | 34° |
| 2026-04-29 02:37 | 53.35229 | -113.54536 | 3803 ft | 202 kts | 34° |
| 2026-04-29 02:37 | 53.36390 | -113.53181 | 4283 ft | 208 kts | 34° |
| 2026-04-29 02:38 | 53.37575 | -113.51798 | 4735 ft | 211 kts | 34° |
| 2026-04-29 02:38 | 53.38783 | -113.50388 | 5037 ft | 217 kts | 34° |
| 2026-04-29 02:38 | 53.40051 | -113.48903 | 5243 ft | 232 kts | 34° |
| 2026-04-29 02:38 | 53.41389 | -113.47333 | 5553 ft | 239 kts | 34° |
| 2026-04-29 02:39 | 53.42752 | -113.45732 | 6082 ft | 249 kts | 34° |
| 2026-04-29 02:39 | 53.44209 | -113.44020 | 6885 ft | 265 kts | 33° |
| 2026-04-29 02:39 | 53.45732 | -113.42228 | 7676 ft | 275 kts | 33° |
| 2026-04-29 02:39 | 53.47308 | -113.40430 | 8434 ft | 278 kts | 31° |
| 2026-04-29 02:40 | 53.48907 | -113.38628 | 9186 ft | 281 kts | 31° |
| 2026-04-29 02:40 | 53.50528 | -113.36798 | 9731 ft | 285 kts | 31° |
| 2026-04-29 02:40 | 53.52164 | -113.34952 | 10230 ft | 286 kts | 31° |
| 2026-04-29 02:40 | 53.53810 | -113.33092 | 10731 ft | 287 kts | 31° |
| 2026-04-29 02:41 | 53.55466 | -113.31222 | 11233 ft | 287 kts | 30° |
| 2026-04-29 02:41 | 53.57115 | -113.29361 | 11732 ft | 288 kts | 30° |
| 2026-04-29 02:41 | 53.58811 | -113.27451 | 12376 ft | 304 kts | 30° |
| 2026-04-29 02:41 | 53.60580 | -113.25465 | 13282 ft | 315 kts | 30° |
| 2026-04-29 02:42 | 53.62414 | -113.23407 | 14179 ft | 326 kts | 30° |
| 2026-04-29 02:42 | 53.64313 | -113.21276 | 15074 ft | 337 kts | 31° |
| 2026-04-29 02:42 | 53.66341 | -113.19288 | 15949 ft | 344 kts | 20° |
| 2026-04-29 02:42 | 53.68583 | -113.17704 | 16767 ft | 357 kts | 20° |
| 2026-04-29 02:43 | 53.70931 | -113.16193 | 17545 ft | 372 kts | 17° |
| 2026-04-29 02:43 | 53.73402 | -113.14731 | 18328 ft | 388 kts | 18° |
| 2026-04-29 02:43 | 53.75972 | -113.13168 | 19113 ft | 404 kts | 18° |
| 2026-04-29 02:43 | 53.78645 | -113.11547 | 19820 ft | 418 kts | 18° |
| 2026-04-29 02:44 | 53.81390 | -113.09882 | 20317 ft | 425 kts | 18° |
| 2026-04-29 02:44 | 53.84165 | -113.08194 | 20819 ft | 428 kts | 18° |
| 2026-04-29 02:44 | 53.86984 | -113.06479 | 21323 ft | 431 kts | 18° |
| 2026-04-29 02:44 | 53.89798 | -113.04763 | 21821 ft | 434 kts | 18° |
| 2026-04-29 02:45 | 53.92629 | -113.03038 | 22319 ft | 437 kts | 18° |
| 2026-04-29 02:45 | 53.95474 | -113.01298 | 22816 ft | 439 kts | 18° |
| 2026-04-29 02:45 | 53.98340 | -112.99548 | 23313 ft | 442 kts | 18° |
| 2026-04-29 02:45 | 54.01222 | -112.97779 | 23811 ft | 444 kts | 18° |
| 2026-04-29 02:46 | 54.04119 | -112.96004 | 24308 ft | 447 kts | 18° |
| 2026-04-29 02:46 | 54.07052 | -112.94199 | 24809 ft | 449 kts | 18° |
| 2026-04-29 02:46 | 54.09980 | -112.92397 | 25306 ft | 451 kts | 18° |
| 2026-04-29 02:46 | 54.12928 | -112.90580 | 25811 ft | 454 kts | 18° |
| 2026-04-29 02:47 | 54.15889 | -112.88753 | 26316 ft | 457 kts | 18° |
| 2026-04-29 02:47 | 54.18861 | -112.86914 | 26818 ft | 458 kts | 18° |
| 2026-04-29 02:47 | 54.21829 | -112.85076 | 27297 ft | 457 kts | 18° |
| 2026-04-29 02:47 | 54.24794 | -112.83238 | 27739 ft | 456 kts | 18° |
| 2026-04-29 02:48 | 54.27769 | -112.81389 | 28187 ft | 454 kts | 18° |
| 2026-04-29 02:48 | 54.30709 | -112.79560 | 28630 ft | 452 kts | 18° |
| 2026-04-29 02:48 | 54.33638 | -112.77735 | 29072 ft | 450 kts | 18° |
| 2026-04-29 02:48 | 54.36554 | -112.75915 | 29485 ft | 449 kts | 18° |
| 2026-04-29 02:49 | 54.39475 | -112.74092 | 29725 ft | 450 kts | 18° |
| 2026-04-29 02:49 | 54.42395 | -112.72265 | 29973 ft | 449 kts | 18° |
| 2026-04-29 02:49 | 54.45310 | -112.70437 | 30219 ft | 449 kts | 18° |
| 2026-04-29 02:49 | 54.48243 | -112.68596 | 30466 ft | 448 kts | 18° |
| 2026-04-29 02:50 | 54.51149 | -112.66768 | 30710 ft | 447 kts | 18° |
| 2026-04-29 02:50 | 54.54051 | -112.64940 | 30956 ft | 446 kts | 17° |
| 2026-04-29 02:50 | 54.56944 | -112.63117 | 31200 ft | 445 kts | 17° |
| 2026-04-29 02:50 | 54.59832 | -112.61293 | 31444 ft | 445 kts | 17° |
| 2026-04-29 02:51 | 54.62715 | -112.59469 | 31686 ft | 444 kts | 17° |
| 2026-04-29 02:51 | 54.65596 | -112.57644 | 31930 ft | 443 kts | 17° |
| 2026-04-29 02:51 | 54.68490 | -112.55808 | 32175 ft | 442 kts | 17° |
| 2026-04-29 02:51 | 54.71357 | -112.53986 | 32418 ft | 441 kts | 17° |
| 2026-04-29 02:52 | 54.74217 | -112.52166 | 32659 ft | 440 kts | 17° |
| 2026-04-29 02:52 | 54.77070 | -112.50348 | 32900 ft | 440 kts | 17° |
| 2026-04-29 02:52 | 54.79921 | -112.48528 | 33142 ft | 439 kts | 17° |
| 2026-04-29 02:52 | 54.82775 | -112.46704 | 33384 ft | 438 kts | 17° |
| 2026-04-29 02:53 | 54.85611 | -112.44886 | 33624 ft | 437 kts | 17° |
| 2026-04-29 02:53 | 54.88466 | -112.43057 | 33866 ft | 436 kts | 17° |
| 2026-04-29 02:53 | 54.91290 | -112.41244 | 34106 ft | 435 kts | 17° |
| 2026-04-29 02:53 | 54.94109 | -112.39431 | 34345 ft | 434 kts | 17° |
| 2026-04-29 02:54 | 54.96923 | -112.37619 | 34584 ft | 433 kts | 17° |
| 2026-04-29 02:54 | 54.99730 | -112.35809 | 34821 ft | 433 kts | 17° |
| 2026-04-29 02:54 | 55.02538 | -112.33995 | 35055 ft | 432 kts | 18° |